createdAt,value
2022-10-09T18:59:07.572Z,62.50
2022-10-09T19:01:34.856Z,62.98
2022-10-09T19:04:01.775Z,63.78
2022-10-09T19:06:28.831Z,62.76
2022-10-09T19:09:00.614Z,63.19
2022-10-09T19:11:33.532Z,64.60
2022-10-09T19:14:00.883Z,63.95
2022-10-09T19:16:29.817Z,63.90
2022-10-09T19:18:56.780Z,62.95
2022-10-09T19:21:24.696Z,62.78
2022-10-09T19:23:52.648Z,63.07
2022-10-09T19:26:21.225Z,62.36
2022-10-09T19:28:48.660Z,66.33
2022-10-09T19:31:15.853Z,65.20
2022-10-09T19:33:43.250Z,63.94
2022-10-09T19:36:13.183Z,63.29
2022-10-09T19:38:40.854Z,64.35
2022-10-09T19:41:10.979Z,63.26
2022-10-09T19:43:38.384Z,62.67
2022-10-09T19:46:17.875Z,64.10
2022-10-09T19:48:50.759Z,65.87
2022-10-09T19:51:23.833Z,64.63
2022-10-09T19:53:52.243Z,70.57
2022-10-09T19:56:26.316Z,70.61
2022-10-09T19:58:54.872Z,70.74
2022-10-09T20:01:24.423Z,67.77
2022-10-09T20:04:01.435Z,66.13
2022-10-09T20:06:28.527Z,64.89
2022-10-09T20:08:55.867Z,63.79
2022-10-09T20:11:23.470Z,66.29
2022-10-09T20:13:55.554Z,64.45
2022-10-09T20:16:24.326Z,64.60
2022-10-09T20:18:51.822Z,67.31
2022-10-09T20:21:19.575Z,70.63
2022-10-09T20:23:46.433Z,69.71
2022-10-09T20:26:16.859Z,66.81
2022-10-09T20:28:44.226Z,67.19
2022-10-09T20:31:14.950Z,67.84
2022-10-09T20:33:42.843Z,66.03
2022-10-09T20:36:23.505Z,65.08
2022-10-09T20:38:50.746Z,67.24
2022-10-09T20:41:18.421Z,67.27
2022-10-09T20:43:49.387Z,69.66
2022-10-09T20:46:16.538Z,68.59
2022-10-09T20:48:43.657Z,67.49
2022-10-09T20:51:11.070Z,68.28
2022-10-09T20:53:37.990Z,69.92
2022-10-09T20:56:09.030Z,68.13
2022-10-09T20:58:36.351Z,67.00
2022-10-09T21:01:06.263Z,66.43
2022-10-09T21:03:34.891Z,69.34
2022-10-09T21:06:06.736Z,70.05
2022-10-09T21:08:34.471Z,70.08
2022-10-09T21:11:05.754Z,67.58
2022-10-09T21:13:32.775Z,69.18
2022-10-09T21:15:59.980Z,68.88
2022-10-09T21:18:34.309Z,68.18
2022-10-09T21:21:19.826Z,69.90
2022-10-09T21:23:52.292Z,72.11
2022-10-09T21:26:22.046Z,70.45
2022-10-09T21:28:49.721Z,70.68
2022-10-09T21:31:23.103Z,72.83
2022-10-09T21:33:50.667Z,71.59
2022-10-09T21:36:32.626Z,72.98
2022-10-09T21:38:59.685Z,76.08
2022-10-09T21:41:27.687Z,76.03
2022-10-09T21:43:54.530Z,73.52
2022-10-09T21:46:21.851Z,70.55
2022-10-09T21:48:48.685Z,71.51
2022-10-09T21:51:15.948Z,68.70
2022-10-09T21:53:42.762Z,67.96
2022-10-09T21:56:10.036Z,67.96
2022-10-09T21:58:38.795Z,66.98
2022-10-09T22:01:06.191Z,65.64
2022-10-09T22:03:35.585Z,65.30
2022-10-09T22:06:08.003Z,67.85
2022-10-09T22:08:35.125Z,67.36
2022-10-09T22:11:04.890Z,68.73
2022-10-09T22:13:31.706Z,71.39
2022-10-09T22:15:58.777Z,72.00
2022-10-09T22:18:25.596Z,76.06
2022-10-09T22:20:52.992Z,76.45
2022-10-09T22:23:30.156Z,76.82
2022-10-09T22:26:03.232Z,73.75
2022-10-09T22:28:30.458Z,72.68
2022-10-09T22:31:11.380Z,75.01
2022-10-09T22:33:38.652Z,75.03
2022-10-09T22:36:12.886Z,72.55
2022-10-09T22:38:40.752Z,73.84
2022-10-09T22:41:13.269Z,74.05
2022-10-09T22:43:41.199Z,75.13
2022-10-09T22:46:11.057Z,75.86
2022-10-09T22:48:38.306Z,77.49
2022-10-09T22:51:07.691Z,77.87
2022-10-09T22:53:36.419Z,75.42
2022-10-09T22:56:18.306Z,77.33
2022-10-09T22:58:46.938Z,75.85
2022-10-09T23:01:31.793Z,75.24
2022-10-09T23:04:03.898Z,73.78
2022-10-09T23:06:31.180Z,71.04
2022-10-09T23:09:00.355Z,70.11
2022-10-09T23:11:27.525Z,68.57
2022-10-09T23:13:58.290Z,69.00
2022-10-09T23:16:26.842Z,67.92
2022-10-09T23:18:56.018Z,72.08
2022-10-09T23:21:24.397Z,68.53
2022-10-09T23:23:52.283Z,67.09
2022-10-09T23:26:25.417Z,67.41
2022-10-09T23:28:55.500Z,66.01
2022-10-09T23:31:23.025Z,67.33
2022-10-09T23:33:50.405Z,68.17
2022-10-09T23:36:29.970Z,68.41
2022-10-09T23:39:03.984Z,68.97
2022-10-09T23:41:30.772Z,69.90
2022-10-09T23:43:57.962Z,69.57
2022-10-09T23:46:30.258Z,69.50
2022-10-09T23:48:57.458Z,71.77
2022-10-09T23:51:25.591Z,71.09
2022-10-09T23:53:52.847Z,70.44
2022-10-09T23:56:21.168Z,68.83
2022-10-09T23:58:48.216Z,69.10
